sensor_id;sensor_type;location;lat;lon;timestamp;temperature;humidity
56162;DHT22;42045;52.986;6.014;2023-01-10T00:01:30;4.60;99.90
56162;DHT22;42045;52.986;6.014;2023-01-10T00:03:56;4.70;99.90
56162;DHT22;42045;52.986;6.014;2023-01-10T00:06:22;4.80;99.90
56162;DHT22;42045;52.986;6.014;2023-01-10T00:08:48;4.70;99.90
56162;DHT22;42045;52.986;6.014;2023-01-10T00:11:13;4.80;99.90
56162;DHT22;42045;52.986;6.014;2023-01-10T00:13:58;4.90;99.90
56162;DHT22;42045;52.986;6.014;2023-01-10T00:16:24;5.00;99.90
56162;DHT22;42045;52.986;6.014;2023-01-10T00:18:49;5.10;99.90
56162;DHT22;42045;52.986;6.014;2023-01-10T00:21:15;5.10;99.90
56162;DHT22;42045;52.986;6.014;2023-01-10T00:23:41;5.20;99.90
56162;DHT22;42045;52.986;6.014;2023-01-10T00:26:08;5.10;99.90
56162;DHT22;42045;52.986;6.014;2023-01-10T00:28:34;5.10;99.90
56162;DHT22;42045;52.986;6.014;2023-01-10T00:31:00;5.20;99.90
56162;DHT22;42045;52.986;6.014;2023-01-10T00:33:31;5.20;99.90
56162;DHT22;42045;52.986;6.014;2023-01-10T00:35:58;5.30;99.90
56162;DHT22;42045;52.986;6.014;2023-01-10T00:38:23;5.20;99.90
56162;DHT22;42045;52.986;6.014;2023-01-10T00:40:49;5.30;99.90
56162;DHT22;42045;52.986;6.014;2023-01-10T00:43:15;5.30;99.90
56162;DHT22;42045;52.986;6.014;2023-01-10T00:45:59;5.30;99.90
56162;DHT22;42045;52.986;6.014;2023-01-10T00:48:27;5.20;99.90
56162;DHT22;42045;52.986;6.014;2023-01-10T00:50:53;5.30;99.90
56162;DHT22;42045;52.986;6.014;2023-01-10T00:53:18;5.30;99.90
56162;DHT22;42045;52.986;6.014;2023-01-10T00:55:44;5.20;99.90
56162;DHT22;42045;52.986;6.014;2023-01-10T00:58:12;5.20;99.90
56162;DHT22;42045;52.986;6.014;2023-01-10T01:00:38;5.40;99.90
56162;DHT22;42045;52.986;6.014;2023-01-10T01:03:04;5.40;99.90
56162;DHT22;42045;52.986;6.014;2023-01-10T01:05:30;5.40;99.90
56162;DHT22;42045;52.986;6.014;2023-01-10T01:07:56;5.40;99.90
56162;DHT22;42045;52.986;6.014;2023-01-10T01:10:22;5.60;99.90
56162;DHT22;42045;52.986;6.014;2023-01-10T01:12:51;5.60;99.90
56162;DHT22;42045;52.986;6.014;2023-01-10T01:15:17;5.70;99.90
56162;DHT22;42045;52.986;6.014;2023-01-10T01:17:42;5.60;99.90
56162;DHT22;42045;52.986;6.014;2023-01-10T01:20:09;5.60;99.90
56162;DHT22;42045;52.986;6.014;2023-01-10T01:22:34;5.60;99.90
56162;DHT22;42045;52.986;6.014;2023-01-10T01:25:01;5.60;99.90
56162;DHT22;42045;52.986;6.014;2023-01-10T01:27:28;5.70;99.90
56162;DHT22;42045;52.986;6.014;2023-01-10T01:29:54;5.70;99.90
56162;DHT22;42045;52.986;6.014;2023-01-10T01:32:20;5.80;99.90
56162;DHT22;42045;52.986;6.014;2023-01-10T01:34:46;5.80;99.90
56162;DHT22;42045;52.986;6.014;2023-01-10T01:37:12;5.90;99.90
56162;DHT22;42045;52.986;6.014;2023-01-10T01:39:37;5.90;99.90
56162;DHT22;42045;52.986;6.014;2023-01-10T01:42:04;5.90;99.90
56162;DHT22;42045;52.986;6.014;2023-01-10T01:44:35;5.90;99.90
56162;DHT22;42045;52.986;6.014;2023-01-10T01:47:17;5.90;99.90
56162;DHT22;42045;52.986;6.014;2023-01-10T01:49:45;5.80;99.90
56162;DHT22;42045;52.986;6.014;2023-01-10T01:52:17;5.80;99.90
56162;DHT22;42045;52.986;6.014;2023-01-10T01:54:47;5.70;99.90
56162;DHT22;42045;52.986;6.014;2023-01-10T01:57:17;5.50;99.90
56162;DHT22;42045;52.986;6.014;2023-01-10T01:59:47;5.50;99.90
56162;DHT22;42045;52.986;6.014;2023-01-10T02:02:18;5.50;99.90
56162;DHT22;42045;52.986;6.014;2023-01-10T02:04:58;5.40;99.90
56162;DHT22;42045;52.986;6.014;2023-01-10T02:07:26;5.40;99.90
56162;DHT22;42045;52.986;6.014;2023-01-10T02:10:05;5.40;99.90
56162;DHT22;42045;52.986;6.014;2023-01-10T02:12:32;5.60;99.90
56162;DHT22;42045;52.986;6.014;2023-01-10T02:14:58;5.60;99.90
56162;DHT22;42045;52.986;6.014;2023-01-10T02:17:24;5.60;99.90
56162;DHT22;42045;52.986;6.014;2023-01-10T02:20:02;5.70;99.90
56162;DHT22;42045;52.986;6.014;2023-01-10T02:31:35;5.80;99.90
56162;DHT22;42045;52.986;6.014;2023-01-10T02:37:07;5.90;99.90
56162;DHT22;42045;52.986;6.014;2023-01-10T02:39:57;5.80;99.90
56162;DHT22;42045;52.986;6.014;2023-01-10T02:42:53;5.90;99.90
56162;DHT22;42045;52.986;6.014;2023-01-10T02:45:51;5.80;99.90
56162;DHT22;42045;52.986;6.014;2023-01-10T02:48:20;5.80;99.90
56162;DHT22;42045;52.986;6.014;2023-01-10T02:51:01;6.00;99.90
56162;DHT22;42045;52.986;6.014;2023-01-10T02:53:40;5.80;99.90
56162;DHT22;42045;52.986;6.014;2023-01-10T02:56:36;6.00;99.90
56162;DHT22;42045;52.986;6.014;2023-01-10T03:05:02;5.80;99.90
56162;DHT22;42045;52.986;6.014;2023-01-10T03:07:42;5.80;99.90
56162;DHT22;42045;52.986;6.014;2023-01-10T03:10:22;5.90;99.90
56162;DHT22;42045;52.986;6.014;2023-01-10T03:13:01;5.90;99.90
56162;DHT22;42045;52.986;6.014;2023-01-10T03:15:33;5.90;99.90
56162;DHT22;42045;52.986;6.014;2023-01-10T03:18:02;5.90;99.90
56162;DHT22;42045;52.986;6.014;2023-01-10T03:20:31;5.90;99.90
56162;DHT22;42045;52.986;6.014;2023-01-10T03:23:00;5.80;99.90
56162;DHT22;42045;52.986;6.014;2023-01-10T03:25:30;6.00;99.90
56162;DHT22;42045;52.986;6.014;2023-01-10T03:30:49;5.90;99.90
56162;DHT22;42045;52.986;6.014;2023-01-10T03:33:28;6.00;99.90
56162;DHT22;42045;52.986;6.014;2023-01-10T03:49:41;5.70;99.90
56162;DHT22;42045;52.986;6.014;2023-01-10T03:52:12;5.70;99.90
56162;DHT22;42045;52.986;6.014;2023-01-10T03:54:38;5.70;99.90
56162;DHT22;42045;52.986;6.014;2023-01-10T03:57:06;5.80;99.90
56162;DHT22;42045;52.986;6.014;2023-01-10T03:59:32;5.80;99.90
56162;DHT22;42045;52.986;6.014;2023-01-10T04:01:58;5.90;99.90
56162;DHT22;42045;52.986;6.014;2023-01-10T04:04:24;6.00;99.90
56162;DHT22;42045;52.986;6.014;2023-01-10T04:06:49;5.90;99.90
56162;DHT22;42045;52.986;6.014;2023-01-10T04:09:15;5.90;99.90
56162;DHT22;42045;52.986;6.014;2023-01-10T04:11:41;6.00;99.90
56162;DHT22;42045;52.986;6.014;2023-01-10T04:14:07;5.90;99.90
56162;DHT22;42045;52.986;6.014;2023-01-10T04:16:32;6.10;99.90
56162;DHT22;42045;52.986;6.014;2023-01-10T04:18:58;6.00;99.90
56162;DHT22;42045;52.986;6.014;2023-01-10T04:21:23;6.00;99.90
56162;DHT22;42045;52.986;6.014;2023-01-10T04:23:49;6.00;99.90
56162;DHT22;42045;52.986;6.014;2023-01-10T04:26:15;6.00;99.90
56162;DHT22;42045;52.986;6.014;2023-01-10T04:28:40;6.10;99.90
56162;DHT22;42045;52.986;6.014;2023-01-10T04:31:06;6.00;99.90
56162;DHT22;42045;52.986;6.014;2023-01-10T04:33:32;6.10;99.90
56162;DHT22;42045;52.986;6.014;2023-01-10T04:35:57;6.10;99.90
56162;DHT22;42045;52.986;6.014;2023-01-10T04:38:23;6.10;99.90
56162;DHT22;42045;52.986;6.014;2023-01-10T04:40:55;6.10;99.90
56162;DHT22;42045;52.986;6.014;2023-01-10T04:43:25;6.00;99.90
56162;DHT22;42045;52.986;6.014;2023-01-10T04:45:50;6.00;99.90
56162;DHT22;42045;52.986;6.014;2023-01-10T04:48:16;6.10;99.90
56162;DHT22;42045;52.986;6.014;2023-01-10T04:50:52;6.20;99.90
56162;DHT22;42045;52.986;6.014;2023-01-10T04:53:18;6.20;99.90
56162;DHT22;42045;52.986;6.014;2023-01-10T04:55:45;6.10;99.90
56162;DHT22;42045;52.986;6.014;2023-01-10T04:58:11;6.00;99.90
56162;DHT22;42045;52.986;6.014;2023-01-10T05:00:37;6.20;99.90
56162;DHT22;42045;52.986;6.014;2023-01-10T05:03:03;6.30;99.90
56162;DHT22;42045;52.986;6.014;2023-01-10T05:05:30;6.10;99.90
56162;DHT22;42045;52.986;6.014;2023-01-10T05:07:55;6.10;99.90
56162;DHT22;42045;52.986;6.014;2023-01-10T05:10:21;6.10;99.90
56162;DHT22;42045;52.986;6.014;2023-01-10T05:12:47;6.10;99.90
56162;DHT22;42045;52.986;6.014;2023-01-10T05:15:13;6.00;99.90
56162;DHT22;42045;52.986;6.014;2023-01-10T05:17:39;6.10;99.90
56162;DHT22;42045;52.986;6.014;2023-01-10T05:20:05;6.00;99.90
56162;DHT22;42045;52.986;6.014;2023-01-10T05:22:32;5.90;99.90
56162;DHT22;42045;52.986;6.014;2023-01-10T05:24:58;5.90;99.90
56162;DHT22;42045;52.986;6.014;2023-01-10T05:27:24;6.00;99.90
56162;DHT22;42045;52.986;6.014;2023-01-10T05:29:49;6.00;99.90
56162;DHT22;42045;52.986;6.014;2023-01-10T05:32:15;5.80;99.90
56162;DHT22;42045;52.986;6.014;2023-01-10T05:34:41;5.90;99.90
56162;DHT22;42045;52.986;6.014;2023-01-10T05:37:07;5.80;99.90
56162;DHT22;42045;52.986;6.014;2023-01-10T05:39:32;5.80;99.90
56162;DHT22;42045;52.986;6.014;2023-01-10T05:41:58;5.90;99.90
56162;DHT22;42045;52.986;6.014;2023-01-10T05:44:24;5.70;99.90
56162;DHT22;42045;52.986;6.014;2023-01-10T05:46:50;5.70;99.90
56162;DHT22;42045;52.986;6.014;2023-01-10T05:49:15;5.70;99.90
56162;DHT22;42045;52.986;6.014;2023-01-10T05:51:41;5.60;99.90
56162;DHT22;42045;52.986;6.014;2023-01-10T05:54:07;5.50;99.90
56162;DHT22;42045;52.986;6.014;2023-01-10T05:56:33;5.40;99.90
56162;DHT22;42045;52.986;6.014;2023-01-10T05:58:58;5.40;99.90
56162;DHT22;42045;52.986;6.014;2023-01-10T06:01:24;5.30;99.90
56162;DHT22;42045;52.986;6.014;2023-01-10T06:03:50;5.40;99.90
56162;DHT22;42045;52.986;6.014;2023-01-10T06:06:15;5.30;99.90
56162;DHT22;42045;52.986;6.014;2023-01-10T06:08:41;5.20;99.90
56162;DHT22;42045;52.986;6.014;2023-01-10T06:11:07;5.20;99.90
56162;DHT22;42045;52.986;6.014;2023-01-10T06:13:33;5.10;99.90
56162;DHT22;42045;52.986;6.014;2023-01-10T06:15:58;5.10;99.90
56162;DHT22;42045;52.986;6.014;2023-01-10T06:18:24;5.00;99.90
56162;DHT22;42045;52.986;6.014;2023-01-10T06:20:50;5.10;99.90
56162;DHT22;42045;52.986;6.014;2023-01-10T06:23:16;5.10;99.90
56162;DHT22;42045;52.986;6.014;2023-01-10T06:25:42;5.10;99.90
56162;DHT22;42045;52.986;6.014;2023-01-10T06:28:12;5.00;99.90
56162;DHT22;42045;52.986;6.014;2023-01-10T06:30:39;4.90;99.90
56162;DHT22;42045;52.986;6.014;2023-01-10T06:33:07;5.00;99.90
56162;DHT22;42045;52.986;6.014;2023-01-10T06:35:33;5.00;99.90
56162;DHT22;42045;52.986;6.014;2023-01-10T06:37:59;4.80;99.90
56162;DHT22;42045;52.986;6.014;2023-01-10T06:40:26;5.00;99.90
56162;DHT22;42045;52.986;6.014;2023-01-10T06:42:52;5.10;99.90
56162;DHT22;42045;52.986;6.014;2023-01-10T06:45:17;4.90;99.90
56162;DHT22;42045;52.986;6.014;2023-01-10T06:47:43;4.90;99.90
56162;DHT22;42045;52.986;6.014;2023-01-10T06:50:11;4.90;99.90
56162;DHT22;42045;52.986;6.014;2023-01-10T06:52:37;5.00;99.90
56162;DHT22;42045;52.986;6.014;2023-01-10T06:55:04;5.10;99.90
56162;DHT22;42045;52.986;6.014;2023-01-10T06:57:31;5.10;99.90
56162;DHT22;42045;52.986;6.014;2023-01-10T07:00:01;5.30;99.90
56162;DHT22;42045;52.986;6.014;2023-01-10T07:02:27;5.50;99.90
56162;DHT22;42045;52.986;6.014;2023-01-10T07:04:52;5.50;99.90
56162;DHT22;42045;52.986;6.014;2023-01-10T07:07:18;5.40;99.90
56162;DHT22;42045;52.986;6.014;2023-01-10T07:09:44;5.50;99.90
56162;DHT22;42045;52.986;6.014;2023-01-10T07:12:10;5.60;99.90
56162;DHT22;42045;52.986;6.014;2023-01-10T07:14:36;5.50;99.90
56162;DHT22;42045;52.986;6.014;2023-01-10T07:17:02;5.70;99.90
56162;DHT22;42045;52.986;6.014;2023-01-10T07:19:28;5.60;99.90
56162;DHT22;42045;52.986;6.014;2023-01-10T07:21:53;5.60;99.90
56162;DHT22;42045;52.986;6.014;2023-01-10T07:24:19;5.70;99.90
56162;DHT22;42045;52.986;6.014;2023-01-10T07:26:45;5.80;99.90
56162;DHT22;42045;52.986;6.014;2023-01-10T07:29:10;5.80;99.90
56162;DHT22;42045;52.986;6.014;2023-01-10T07:31:36;5.70;99.90
56162;DHT22;42045;52.986;6.014;2023-01-10T07:34:02;5.50;99.90
56162;DHT22;42045;52.986;6.014;2023-01-10T07:36:27;5.40;99.90
56162;DHT22;42045;52.986;6.014;2023-01-10T07:38:53;5.40;99.90
56162;DHT22;42045;52.986;6.014;2023-01-10T07:41:19;5.30;99.90
56162;DHT22;42045;52.986;6.014;2023-01-10T07:43:44;5.20;99.90
56162;DHT22;42045;52.986;6.014;2023-01-10T07:46:10;5.20;99.90
56162;DHT22;42045;52.986;6.014;2023-01-10T07:48:37;5.20;99.90
56162;DHT22;42045;52.986;6.014;2023-01-10T07:51:04;5.10;99.90
56162;DHT22;42045;52.986;6.014;2023-01-10T07:53:30;5.00;99.90
56162;DHT22;42045;52.986;6.014;2023-01-10T07:56:00;5.00;99.90
56162;DHT22;42045;52.986;6.014;2023-01-10T07:58:26;5.00;99.90
56162;DHT22;42045;52.986;6.014;2023-01-10T08:01:00;5.00;99.90
56162;DHT22;42045;52.986;6.014;2023-01-10T08:03:27;5.00;99.90
56162;DHT22;42045;52.986;6.014;2023-01-10T08:05:58;4.80;99.90
56162;DHT22;42045;52.986;6.014;2023-01-10T08:08:24;4.80;99.90
56162;DHT22;42045;52.986;6.014;2023-01-10T08:10:50;5.00;99.90
56162;DHT22;42045;52.986;6.014;2023-01-10T08:13:15;4.90;99.90
56162;DHT22;42045;52.986;6.014;2023-01-10T08:15:41;4.80;99.90
56162;DHT22;42045;52.986;6.014;2023-01-10T08:18:07;4.80;99.90
56162;DHT22;42045;52.986;6.014;2023-01-10T08:20:32;4.90;99.90
56162;DHT22;42045;52.986;6.014;2023-01-10T08:22:59;4.90;99.90
56162;DHT22;42045;52.986;6.014;2023-01-10T08:25:25;4.80;99.90
56162;DHT22;42045;52.986;6.014;2023-01-10T08:27:51;5.10;99.90
56162;DHT22;42045;52.986;6.014;2023-01-10T08:30:16;5.10;99.90
56162;DHT22;42045;52.986;6.014;2023-01-10T08:32:42;5.00;99.90
56162;DHT22;42045;52.986;6.014;2023-01-10T08:35:08;5.10;99.90
56162;DHT22;42045;52.986;6.014;2023-01-10T08:37:34;5.20;99.90
56162;DHT22;42045;52.986;6.014;2023-01-10T08:40:00;5.30;99.90
56162;DHT22;42045;52.986;6.014;2023-01-10T08:42:26;5.40;99.90
56162;DHT22;42045;52.986;6.014;2023-01-10T08:44:51;5.30;99.90
56162;DHT22;42045;52.986;6.014;2023-01-10T08:47:19;5.40;99.90
56162;DHT22;42045;52.986;6.014;2023-01-10T08:49:44;5.40;99.90
56162;DHT22;42045;52.986;6.014;2023-01-10T08:52:12;5.60;99.90
56162;DHT22;42045;52.986;6.014;2023-01-10T08:54:37;5.60;99.90
56162;DHT22;42045;52.986;6.014;2023-01-10T08:57:03;5.80;99.90
56162;DHT22;42045;52.986;6.014;2023-01-10T08:59:29;5.80;99.90
56162;DHT22;42045;52.986;6.014;2023-01-10T09:01:54;6.00;99.90
56162;DHT22;42045;52.986;6.014;2023-01-10T09:04:23;5.90;99.90
56162;DHT22;42045;52.986;6.014;2023-01-10T09:06:49;6.00;99.90
56162;DHT22;42045;52.986;6.014;2023-01-10T09:09:14;6.10;99.90
56162;DHT22;42045;52.986;6.014;2023-01-10T09:11:40;6.20;99.90
56162;DHT22;42045;52.986;6.014;2023-01-10T09:14:06;6.20;99.90
56162;DHT22;42045;52.986;6.014;2023-01-10T09:16:32;6.20;99.90
56162;DHT22;42045;52.986;6.014;2023-01-10T09:18:58;6.30;99.90
56162;DHT22;42045;52.986;6.014;2023-01-10T09:21:23;6.30;99.90
56162;DHT22;42045;52.986;6.014;2023-01-10T09:23:49;6.40;99.90
56162;DHT22;42045;52.986;6.014;2023-01-10T09:26:15;6.40;99.90
56162;DHT22;42045;52.986;6.014;2023-01-10T09:28:40;6.40;99.90
56162;DHT22;42045;52.986;6.014;2023-01-10T09:31:06;6.40;99.90
56162;DHT22;42045;52.986;6.014;2023-01-10T09:33:34;6.40;99.90
56162;DHT22;42045;52.986;6.014;2023-01-10T09:36:00;6.30;99.90
56162;DHT22;42045;52.986;6.014;2023-01-10T09:38:27;6.40;99.90
56162;DHT22;42045;52.986;6.014;2023-01-10T09:44:03;6.30;99.90
56162;DHT22;42045;52.986;6.014;2023-01-10T09:49:14;6.50;99.90
56162;DHT22;42045;52.986;6.014;2023-01-10T09:51:44;6.40;99.90
56162;DHT22;42045;52.986;6.014;2023-01-10T09:54:32;6.40;99.90
56162;DHT22;42045;52.986;6.014;2023-01-10T09:57:00;6.40;99.90
56162;DHT22;42045;52.986;6.014;2023-01-10T09:59:36;6.50;99.90
56162;DHT22;42045;52.986;6.014;2023-01-10T10:02:26;6.50;99.90
56162;DHT22;42045;52.986;6.014;2023-01-10T10:05:03;6.60;99.90
56162;DHT22;42045;52.986;6.014;2023-01-10T10:07:32;6.50;99.90
56162;DHT22;42045;52.986;6.014;2023-01-10T10:09:57;6.60;99.90
56162;DHT22;42045;52.986;6.014;2023-01-10T10:29:28;6.50;99.90
56162;DHT22;42045;52.986;6.014;2023-01-10T10:34:30;6.50;99.90
56162;DHT22;42045;52.986;6.014;2023-01-10T10:37:16;6.60;99.90
56162;DHT22;42045;52.986;6.014;2023-01-10T10:39:57;6.60;99.90
56162;DHT22;42045;52.986;6.014;2023-01-10T10:42:32;6.60;99.90
56162;DHT22;42045;52.986;6.014;2023-01-10T10:45:02;6.70;99.90
56162;DHT22;42045;52.986;6.014;2023-01-10T10:47:36;6.60;99.90
56162;DHT22;42045;52.986;6.014;2023-01-10T10:50:40;6.70;99.90
56162;DHT22;42045;52.986;6.014;2023-01-10T10:53:04;6.60;99.90
56162;DHT22;42045;52.986;6.014;2023-01-10T10:55:33;6.60;99.90
56162;DHT22;42045;52.986;6.014;2023-01-10T10:58:00;6.60;99.90
56162;DHT22;42045;52.986;6.014;2023-01-10T11:00:28;6.70;99.90
56162;DHT22;42045;52.986;6.014;2023-01-10T11:05:40;6.60;99.90
56162;DHT22;42045;52.986;6.014;2023-01-10T11:08:09;6.60;99.90
56162;DHT22;42045;52.986;6.014;2023-01-10T11:10:42;6.60;99.90
56162;DHT22;42045;52.986;6.014;2023-01-10T11:13:35;6.60;99.90
56162;DHT22;42045;52.986;6.014;2023-01-10T11:16:05;6.60;99.90
56162;DHT22;42045;52.986;6.014;2023-01-10T11:18:31;6.50;99.90
56162;DHT22;42045;52.986;6.014;2023-01-10T11:21:04;6.60;99.90
56162;DHT22;42045;52.986;6.014;2023-01-10T11:26:03;6.40;99.90
56162;DHT22;42045;52.986;6.014;2023-01-10T11:28:31;6.40;99.90
56162;DHT22;42045;52.986;6.014;2023-01-10T11:30:58;6.40;99.90
56162;DHT22;42045;52.986;6.014;2023-01-10T11:33:30;6.40;99.90
56162;DHT22;42045;52.986;6.014;2023-01-10T11:36:00;6.40;99.90
56162;DHT22;42045;52.986;6.014;2023-01-10T11:38:26;6.30;99.90
56162;DHT22;42045;52.986;6.014;2023-01-10T11:41:14;6.30;99.90
56162;DHT22;42045;52.986;6.014;2023-01-10T11:43:49;6.30;99.90
56162;DHT22;42045;52.986;6.014;2023-01-10T11:46:23;6.30;99.90
56162;DHT22;42045;52.986;6.014;2023-01-10T11:49:05;6.30;99.90
56162;DHT22;42045;52.986;6.014;2023-01-10T11:51:59;6.20;99.90
56162;DHT22;42045;52.986;6.014;2023-01-10T11:54:27;6.20;99.90
56162;DHT22;42045;52.986;6.014;2023-01-10T11:57:23;6.20;99.90
56162;DHT22;42045;52.986;6.014;2023-01-10T12:02:23;6.10;99.90
56162;DHT22;42045;52.986;6.014;2023-01-10T12:04:50;6.20;99.90
56162;DHT22;42045;52.986;6.014;2023-01-10T12:07:16;6.10;99.90
56162;DHT22;42045;52.986;6.014;2023-01-10T12:12:25;6.20;99.90
56162;DHT22;42045;52.986;6.014;2023-01-10T12:14:52;6.10;99.90
56162;DHT22;42045;52.986;6.014;2023-01-10T12:17:35;6.10;99.90
56162;DHT22;42045;52.986;6.014;2023-01-10T12:20:08;6.10;99.90
56162;DHT22;42045;52.986;6.014;2023-01-10T12:22:50;6.10;99.90
56162;DHT22;42045;52.986;6.014;2023-01-10T12:25:19;6.10;99.90
56162;DHT22;42045;52.986;6.014;2023-01-10T12:27:45;6.10;99.90
56162;DHT22;42045;52.986;6.014;2023-01-10T12:30:29;6.10;99.90
56162;DHT22;42045;52.986;6.014;2023-01-10T12:32:59;6.10;99.90
56162;DHT22;42045;52.986;6.014;2023-01-10T12:35:56;6.00;99.90
56162;DHT22;42045;52.986;6.014;2023-01-10T12:38:35;6.10;99.90
56162;DHT22;42045;52.986;6.014;2023-01-10T12:44:34;6.10;99.90
56162;DHT22;42045;52.986;6.014;2023-01-10T12:49:31;6.10;99.90
56162;DHT22;42045;52.986;6.014;2023-01-10T12:52:04;6.00;99.90
56162;DHT22;42045;52.986;6.014;2023-01-10T12:54:30;6.10;99.90
56162;DHT22;42045;52.986;6.014;2023-01-10T12:57:04;6.10;99.90
56162;DHT22;42045;52.986;6.014;2023-01-10T12:59:36;6.10;99.90
56162;DHT22;42045;52.986;6.014;2023-01-10T13:02:09;6.10;99.90
56162;DHT22;42045;52.986;6.014;2023-01-10T13:04:39;6.10;99.90
56162;DHT22;42045;52.986;6.014;2023-01-10T13:07:10;6.10;99.90
56162;DHT22;42045;52.986;6.014;2023-01-10T13:09:38;6.10;99.90
56162;DHT22;42045;52.986;6.014;2023-01-10T13:12:10;6.00;99.90
56162;DHT22;42045;52.986;6.014;2023-01-10T13:22:56;6.00;99.90
56162;DHT22;42045;52.986;6.014;2023-01-10T13:25:29;6.00;99.90
56162;DHT22;42045;52.986;6.014;2023-01-10T13:28:02;6.00;99.90
56162;DHT22;42045;52.986;6.014;2023-01-10T13:30:34;6.00;99.90
56162;DHT22;42045;52.986;6.014;2023-01-10T13:33:07;6.00;99.90
56162;DHT22;42045;52.986;6.014;2023-01-10T13:35:43;6.00;99.90
56162;DHT22;42045;52.986;6.014;2023-01-10T13:43:57;5.90;99.90
56162;DHT22;42045;52.986;6.014;2023-01-10T13:51:23;5.90;99.90
56162;DHT22;42045;52.986;6.014;2023-01-10T13:56:38;5.90;99.90
56162;DHT22;42045;52.986;6.014;2023-01-10T14:02:20;6.00;99.90
56162;DHT22;42045;52.986;6.014;2023-01-10T14:05:03;5.90;99.90
56162;DHT22;42045;52.986;6.014;2023-01-10T14:07:32;5.90;99.90
56162;DHT22;42045;52.986;6.014;2023-01-10T14:10:06;5.90;99.90
56162;DHT22;42045;52.986;6.014;2023-01-10T14:12:38;5.90;99.90
56162;DHT22;42045;52.986;6.014;2023-01-10T14:15:27;5.90;99.90
56162;DHT22;42045;52.986;6.014;2023-01-10T14:18:05;5.90;99.90
56162;DHT22;42045;52.986;6.014;2023-01-10T14:20:34;6.00;99.90
56162;DHT22;42045;52.986;6.014;2023-01-10T14:23:07;6.00;99.90
56162;DHT22;42045;52.986;6.014;2023-01-10T14:25:35;6.00;99.90
56162;DHT22;42045;52.986;6.014;2023-01-10T14:28:02;6.00;99.90
56162;DHT22;42045;52.986;6.014;2023-01-10T14:30:33;6.00;99.90
56162;DHT22;42045;52.986;6.014;2023-01-10T14:33:14;6.00;99.90
56162;DHT22;42045;52.986;6.014;2023-01-10T14:35:45;6.00;99.90
56162;DHT22;42045;52.986;6.014;2023-01-10T14:40:49;6.00;99.90
56162;DHT22;42045;52.986;6.014;2023-01-10T14:43:18;6.10;99.90
56162;DHT22;42045;52.986;6.014;2023-01-10T14:46:03;6.10;99.90
56162;DHT22;42045;52.986;6.014;2023-01-10T14:48:32;6.10;99.90
56162;DHT22;42045;52.986;6.014;2023-01-10T14:51:23;6.10;99.90
56162;DHT22;42045;52.986;6.014;2023-01-10T14:54:10;6.10;99.90
56162;DHT22;42045;52.986;6.014;2023-01-10T14:56:41;6.20;99.90
56162;DHT22;42045;52.986;6.014;2023-01-10T15:02:02;6.20;99.90
56162;DHT22;42045;52.986;6.014;2023-01-10T15:04:31;6.20;99.90
56162;DHT22;42045;52.986;6.014;2023-01-10T15:07:01;6.10;99.90
56162;DHT22;42045;52.986;6.014;2023-01-10T15:09:30;6.20;99.90
56162;DHT22;42045;52.986;6.014;2023-01-10T15:12:01;6.20;99.90
56162;DHT22;42045;52.986;6.014;2023-01-10T15:14:28;6.20;99.90
56162;DHT22;42045;52.986;6.014;2023-01-10T15:17:01;6.20;99.90
56162;DHT22;42045;52.986;6.014;2023-01-10T15:19:32;6.20;99.90
56162;DHT22;42045;52.986;6.014;2023-01-10T15:21:59;6.10;99.90
56162;DHT22;42045;52.986;6.014;2023-01-10T15:24:33;6.20;99.90
56162;DHT22;42045;52.986;6.014;2023-01-10T15:27:03;6.10;99.90
56162;DHT22;42045;52.986;6.014;2023-01-10T15:29:29;6.10;99.90
56162;DHT22;42045;52.986;6.014;2023-01-10T15:32:23;6.10;99.90
56162;DHT22;42045;52.986;6.014;2023-01-10T15:34:52;6.00;99.90
56162;DHT22;42045;52.986;6.014;2023-01-10T15:37:23;6.10;99.90
56162;DHT22;42045;52.986;6.014;2023-01-10T15:39:52;6.00;99.90
56162;DHT22;42045;52.986;6.014;2023-01-10T15:42:19;6.00;99.90
56162;DHT22;42045;52.986;6.014;2023-01-10T15:44:47;5.90;99.90
56162;DHT22;42045;52.986;6.014;2023-01-10T15:47:36;6.00;99.90
56162;DHT22;42045;52.986;6.014;2023-01-10T15:53:02;5.80;99.90
56162;DHT22;42045;52.986;6.014;2023-01-10T15:58:15;5.80;99.90
56162;DHT22;42045;52.986;6.014;2023-01-10T16:00:46;5.80;99.90
56162;DHT22;42045;52.986;6.014;2023-01-10T16:03:21;5.90;99.90
56162;DHT22;42045;52.986;6.014;2023-01-10T16:05:53;5.90;99.90
56162;DHT22;42045;52.986;6.014;2023-01-10T16:08:22;5.90;99.90
56162;DHT22;42045;52.986;6.014;2023-01-10T16:10:57;5.70;99.90
56162;DHT22;42045;52.986;6.014;2023-01-10T16:13:23;5.80;99.90
56162;DHT22;42045;52.986;6.014;2023-01-10T16:15:53;5.80;99.90
56162;DHT22;42045;52.986;6.014;2023-01-10T16:18:19;5.70;99.90
56162;DHT22;42045;52.986;6.014;2023-01-10T16:20:46;5.70;99.90
56162;DHT22;42045;52.986;6.014;2023-01-10T16:23:18;5.90;99.90
56162;DHT22;42045;52.986;6.014;2023-01-10T16:25:48;5.70;99.90
56162;DHT22;42045;52.986;6.014;2023-01-10T16:28:15;5.80;99.90
56162;DHT22;42045;52.986;6.014;2023-01-10T16:30:43;5.90;99.90
56162;DHT22;42045;52.986;6.014;2023-01-10T16:33:13;5.80;99.90
56162;DHT22;42045;52.986;6.014;2023-01-10T16:35:53;5.80;99.90
56162;DHT22;42045;52.986;6.014;2023-01-10T16:38:20;5.90;99.90
56162;DHT22;42045;52.986;6.014;2023-01-10T16:40:49;5.90;99.90
56162;DHT22;42045;52.986;6.014;2023-01-10T16:43:15;5.90;99.90
56162;DHT22;42045;52.986;6.014;2023-01-10T16:45:54;5.80;99.90
56162;DHT22;42045;52.986;6.014;2023-01-10T16:48:26;5.90;99.90
56162;DHT22;42045;52.986;6.014;2023-01-10T16:50:52;5.90;99.90
56162;DHT22;42045;52.986;6.014;2023-01-10T16:53:19;5.90;99.90
56162;DHT22;42045;52.986;6.014;2023-01-10T16:55:47;5.90;99.90
56162;DHT22;42045;52.986;6.014;2023-01-10T16:58:14;5.80;99.90
56162;DHT22;42045;52.986;6.014;2023-01-10T17:00:41;5.80;99.90
56162;DHT22;42045;52.986;6.014;2023-01-10T17:03:19;5.90;99.90
56162;DHT22;42045;52.986;6.014;2023-01-10T17:05:45;5.80;99.90
56162;DHT22;42045;52.986;6.014;2023-01-10T17:08:17;5.80;99.90
56162;DHT22;42045;52.986;6.014;2023-01-10T17:10:45;6.00;99.90
56162;DHT22;42045;52.986;6.014;2023-01-10T17:13:14;5.90;99.90
56162;DHT22;42045;52.986;6.014;2023-01-10T17:15:41;5.80;99.90
56162;DHT22;42045;52.986;6.014;2023-01-10T17:18:09;5.80;99.90
56162;DHT22;42045;52.986;6.014;2023-01-10T17:20:35;5.90;99.90
56162;DHT22;42045;52.986;6.014;2023-01-10T17:23:00;6.00;99.90
56162;DHT22;42045;52.986;6.014;2023-01-10T17:25:26;5.80;99.90
56162;DHT22;42045;52.986;6.014;2023-01-10T17:27:52;5.80;99.90
56162;DHT22;42045;52.986;6.014;2023-01-10T17:30:17;5.80;99.90
56162;DHT22;42045;52.986;6.014;2023-01-10T17:32:43;5.80;99.90
56162;DHT22;42045;52.986;6.014;2023-01-10T17:35:09;6.00;99.90
56162;DHT22;42045;52.986;6.014;2023-01-10T17:37:35;5.90;99.90
56162;DHT22;42045;52.986;6.014;2023-01-10T17:40:01;5.80;99.90
56162;DHT22;42045;52.986;6.014;2023-01-10T17:42:27;6.00;99.90
56162;DHT22;42045;52.986;6.014;2023-01-10T17:44:53;6.00;99.90
56162;DHT22;42045;52.986;6.014;2023-01-10T17:47:18;5.80;99.90
56162;DHT22;42045;52.986;6.014;2023-01-10T17:49:44;5.80;99.90
56162;DHT22;42045;52.986;6.014;2023-01-10T17:52:10;5.80;99.90